• Join FlightAware (Why Join?)
  • Login
  • US Flag 
08:15AM EDT


 

Airport Tracker/Info


-or-


 

Live Flight TrackerFlight Track Log ✈ CCA1122 ✈ 07-Sep-2013 ✈ ZBOW / BAV - ZBAA / PEK

Flight Track Log - Related Links

Times and Time Zones

All times are in EDT time to prevent confusion due to time zone crossing. See the CCA1122 flight status page for this flight to view local times or setup timezone preferences in your user account.

Time Position Orientation Groundspeed Altitude Reporting Facility
EDT Latitude Longitude Course Direction KTS MPH feet Rate Location/Type
12:51AM 40.5465 110.2938 93° East  Level Estimated
12:52AM 40.5419 110.3927 94° East  Level Estimated
12:53AM 40.5371 110.4916 94° East  Level Estimated
12:54AM 40.5323 110.5905 94° East  Level Estimated
12:55AM 40.5274 110.6893 94° East  Level Estimated
12:56AM 40.5224 110.7882 94° East  Level Estimated
12:57AM 40.5173 110.8870 94° East  Level Estimated
12:58AM 40.5122 110.9859 94° East  Level Estimated
12:59AM 40.5069 111.0847 94° East  Level Estimated
01:00AM 40.5016 111.1835 94° East  Level Estimated
01:01AM 40.4962 111.2823 94° East  Level Estimated
01:02AM 40.4907 111.3810 94° East  Level Estimated
01:03AM 40.4851 111.4798 94° East  Level Estimated
01:04AM 40.4794 111.5785 94° East  Level Estimated
01:05AM 40.4737 111.6772 94° East  Level Estimated
01:06AM 40.4679 111.7759 94° East  Level Estimated
01:07AM 40.4619 111.8746 94° East  Level Estimated
01:08AM 40.4559 111.9733 95° East  Level Estimated
01:09AM 40.4498 112.0719 95° East  Level Estimated
01:10AM 40.4437 112.1705 95° East  Level Estimated
01:11AM 40.4374 112.2691 95° East  Level Estimated
01:12AM 40.4311 112.3677 95° East  Level Estimated
01:13AM 40.4247 112.4663 95° East  Level Estimated
01:14AM 40.4182 112.5648 95° East  Level Estimated
01:15AM 40.4116 112.6634 95° East  Level Estimated
01:16AM 40.4049 112.7619 95° East  Level Estimated
01:17AM 40.3982 112.8604 95° East  Level Estimated
01:18AM 40.3913 112.9588 95° East  Level Estimated
01:19AM 40.3844 113.0573 95° East  Level Estimated
01:20AM 40.3774 113.1557 95° East  Level Estimated
01:21AM 40.3703 113.2541 95° East  Level Estimated
01:22AM 40.3631 113.3525 95° East  Level Estimated
01:23AM 40.3559 113.4509 95° East  Level Estimated
01:24AM 40.3485 113.5492 96° East  Level Estimated
01:25AM 40.3411 113.6476 96° East  Level Estimated
01:26AM 40.3336 113.7459 96° East  Level Estimated
01:27AM 40.3260 113.8442 96° East  Level Estimated
01:28AM 40.3183 113.9424 96° East  Level Estimated
01:29AM 40.3106 114.0407 96° East  Level Estimated
01:30AM 40.3027 114.1389 96° East  Level Estimated
01:31AM 40.2948 114.2371 96° East  Level Estimated
01:32AM 40.2868 114.3353 96° East  Level Estimated
01:33AM 40.2787 114.4334 96° East  Level Estimated
01:34AM 40.2706 114.5315 96° East  Level Estimated
01:35AM 40.2623 114.6296 96° East  Level Estimated
01:36AM 40.2540 114.7277 96° East  Level Estimated
01:37AM 40.2456 114.8258 96° East  Level Estimated
01:38AM 40.2371 114.9238 96° East  Level Estimated
01:39AM 40.2285 115.0218 97° East  Level Estimated
01:40AM 40.2198 115.1198 97° East  Level Estimated
01:41AM 40.2111 115.2177 97° East  Level Estimated
01:42AM 40.2022 115.3157 97° East  Level Estimated
01:43AM 40.1933 115.4136 97° East  Level Estimated
01:44AM 40.1843 115.5115 97° East  Level Estimated
01:45AM 40.1752 115.6093 97° East  Level Estimated
01:46AM 40.1661 115.7071 97° East  Level Estimated
01:47AM 40.1568 115.8049 97° East  Level Estimated
01:48AM 40.1475 115.9027 97° East  Level Estimated
01:49AM 40.1381 116.0004 97° East  Level Estimated
01:50AM 40.1286 116.0982 97° East  Level Estimated
01:51AM 40.1190 116.1958 97° East  Level Estimated
01:52AM 40.1094 116.2935 97° East  Level Estimated
01:53AM 40.0997 116.3911 97° East  Level Estimated